KGPT/GPT METAR and TAF weather

Enter ICAO airport designator
Station Type Date Time Source
KGPT METAR 2021/07/28 04:53 UTC NOAA

KGPT 280453Z AUTO 00000KT 10SM CLR 27/25 A3002 RMK AO2 SLP165 T02720250 403390239


Station Type Date Time Source
KGPT Decoded METAR 2021/07/28 04:53 UTC NOAA

GULFPORT-BILOXI REG AIRPORT , MS, United States (KGPT) 30-25N 089-05W 14M
Jul 28, 2021 - 12:53 AM EDT / 2021.07.28 0453 UTC
Wind: Calm:0
Visibility: 10 mile(s):0
Sky conditions: clear
Temperature: 81.0 F (27.2 C)
Dew Point: 77.0 F (25.0 C)
Relative Humidity: 87%
Pressure (altimeter): 30.02 in. Hg (1016 hPa)
ob: KGPT 280453Z AUTO 00000KT 10SM CLR 27/25 A3002 RMK AO2 SLP165 T02720250 403390239
cycle: 5

Station Type Date Time Source
KGPT TAF 2021/07/28 06:22 UTC NOAA

TAF KGPT 280520Z 2806/2906 00000KT P6SM SKC
FM281500 VRB03KT P6SM VCTS FEW030CB SCT200
FM281800 18006KT P6SM SCT035 BKN150
FM290000 VRB03KT P6SM BKN250 PROB30 2900/2902 P6SM TS BKN050CB
FM290200 00000KT P6SM SKC

Example: see airport list